createdAt,value
2024-04-13T00:10:21.953Z,949.00
2024-04-13T00:10:53.920Z,970.00
2024-04-13T00:11:53.908Z,1061.00
2024-04-13T00:13:28.418Z,1114.00
2024-04-13T00:13:53.955Z,954.00
2024-04-13T00:14:53.927Z,974.00
2024-04-13T00:15:53.905Z,966.00
2024-04-13T00:16:54.024Z,865.00
2024-04-13T00:19:26.317Z,807.00
2024-04-13T00:19:58.277Z,952.00
2024-04-13T00:20:58.262Z,950.00
2024-04-13T00:21:58.248Z,753.00
2024-04-13T00:22:58.310Z,648.00
2024-04-13T00:23:58.313Z,616.00
2024-04-13T00:24:58.292Z,599.00
2024-04-13T00:25:58.263Z,600.00
2024-04-13T00:26:58.268Z,599.00
2024-04-13T00:27:58.278Z,601.00
2024-04-13T00:28:58.265Z,600.00
2024-04-13T00:29:58.278Z,600.00
2024-04-13T00:30:58.323Z,602.00
2024-04-13T00:31:58.268Z,601.00
2024-04-13T00:32:58.314Z,602.00
2024-04-13T00:33:58.292Z,600.00
2024-04-13T00:38:39.435Z,600.00
2024-04-13T00:39:11.402Z,605.00
2024-04-13T00:40:11.342Z,627.00
2024-04-13T00:41:12.104Z,647.00
2024-04-13T00:54:39.226Z,600.00
2024-04-13T00:54:59.183Z,604.00
2024-04-13T00:55:59.157Z,659.00
2024-04-13T00:56:59.196Z,828.00
2024-04-13T00:57:59.164Z,1015.00
2024-04-13T00:58:59.148Z,1246.00
2024-04-13T00:59:59.191Z,1376.00
2024-04-13T01:00:59.179Z,1220.00
2024-04-13T01:01:59.205Z,1099.00
2024-04-13T01:02:59.243Z,1004.00
2024-04-13T01:03:59.186Z,960.00
2024-04-13T01:04:59.147Z,957.00
2024-04-13T01:05:59.229Z,964.00
2024-04-13T01:19:26.107Z,974.00
2024-04-13T01:19:47.018Z,983.00
2024-04-13T01:20:47.010Z,1093.00
2024-04-13T01:21:46.997Z,1212.00
2024-04-13T01:22:47.034Z,1307.00
2024-04-13T01:23:47.023Z,1366.00
2024-04-13T01:24:47.036Z,1328.00
2024-04-13T01:25:47.021Z,1216.00
2024-04-13T01:26:47.007Z,1116.00
2024-04-13T01:27:47.016Z,1044.00
2024-04-13T01:28:47.004Z,991.00
2024-04-13T01:29:47.024Z,968.00
2024-04-13T01:30:47.017Z,928.00
2024-04-13T01:31:47.015Z,895.00
2024-04-13T01:32:47.256Z,860.00
2024-04-13T01:33:47.132Z,831.00
2024-04-13T01:34:47.017Z,810.00
2024-04-13T01:35:47.028Z,808.00
2024-04-13T01:36:47.051Z,792.00
2024-04-13T01:37:47.052Z,763.00
2024-04-13T01:38:47.025Z,718.00
2024-04-13T01:39:47.147Z,705.00
2024-04-13T01:40:47.046Z,698.00
2024-04-13T01:41:47.017Z,676.00
2024-04-13T01:42:47.114Z,676.00
2024-04-13T01:43:47.024Z,666.00
2024-04-13T01:44:47.031Z,686.00
2024-04-13T01:45:47.036Z,715.00
2024-04-13T01:46:47.048Z,738.00
2024-04-13T01:47:47.168Z,758.00
2024-04-13T01:54:36.962Z,748.00
2024-04-13T01:55:08.861Z,766.00
2024-04-13T01:56:08.804Z,855.00
2024-04-13T01:57:08.920Z,947.00
2024-04-13T01:58:08.889Z,999.00
2024-04-13T01:59:08.791Z,1015.00
2024-04-13T02:00:08.858Z,973.00
2024-04-13T02:01:08.858Z,908.00
2024-04-13T02:02:08.848Z,876.00
2024-04-13T02:03:08.846Z,846.00
2024-04-13T02:04:08.934Z,821.00
2024-04-13T02:05:08.801Z,831.00
2024-04-13T02:06:08.855Z,829.00
2024-04-13T02:07:08.809Z,831.00
2024-04-13T02:08:08.818Z,844.00
2024-04-13T02:09:08.824Z,846.00
2024-04-13T02:10:08.807Z,795.00
2024-04-13T02:11:08.918Z,748.00
2024-04-13T02:12:08.845Z,721.00
2024-04-13T02:13:08.825Z,695.00
2024-04-13T02:14:08.830Z,699.00
2024-04-13T02:15:08.874Z,700.00
2024-04-13T02:16:08.842Z,694.00
2024-04-13T02:17:08.815Z,690.00
2024-04-13T02:18:08.925Z,690.00
2024-04-13T02:19:08.918Z,703.00
2024-04-13T02:20:08.835Z,705.00
2024-04-13T02:21:08.870Z,695.00
2024-04-13T02:27:03.230Z,683.00
2024-04-13T02:27:26.468Z,691.00
2024-04-13T02:28:26.217Z,767.00
2024-04-13T02:29:26.225Z,857.00
2024-04-13T02:30:26.296Z,939.00
2024-04-13T02:31:26.238Z,1004.00
2024-04-13T02:32:26.290Z,1009.00
2024-04-13T02:34:03.353Z,963.00
2024-04-13T02:34:26.271Z,964.00
2024-04-13T02:35:26.233Z,973.00
2024-04-13T02:36:26.279Z,970.00
2024-04-13T02:37:26.261Z,905.00
2024-04-13T02:38:26.248Z,828.00
2024-04-13T02:39:26.250Z,762.00
2024-04-13T02:40:26.249Z,723.00
2024-04-13T02:44:11.964Z,696.00
2024-04-13T02:44:34.977Z,701.00
2024-04-13T02:45:35.028Z,751.00
2024-04-13T02:46:34.943Z,807.00
2024-04-13T02:49:07.778Z,696.00
2024-04-13T02:49:39.354Z,706.00
2024-04-13T02:50:39.336Z,751.00
2024-04-13T02:51:39.373Z,793.00
2024-04-13T02:52:39.325Z,825.00
2024-04-13T02:53:39.323Z,847.00
2024-04-13T02:54:39.382Z,852.00
2024-04-13T02:55:39.324Z,832.00
2024-04-13T02:56:39.326Z,801.00
2024-04-13T02:57:39.382Z,743.00
2024-04-13T02:58:39.329Z,721.00
2024-04-13T02:59:39.330Z,704.00
2024-04-13T03:00:39.472Z,682.00
2024-04-13T03:05:21.944Z,671.00
2024-04-13T03:05:52.597Z,684.00
2024-04-13T03:06:52.658Z,748.00
2024-04-13T03:07:52.646Z,811.00
2024-04-13T03:08:52.724Z,878.00
2024-04-13T03:09:52.821Z,913.00
2024-04-13T03:10:52.844Z,876.00
2024-04-13T03:12:00.132Z,600.00
2024-04-13T03:13:00.114Z,600.00
2024-04-13T03:14:00.119Z,600.00
2024-04-13T03:15:00.176Z,600.00
2024-04-13T03:16:00.123Z,600.00
2024-04-13T03:17:00.186Z,600.00
2024-04-13T03:18:00.174Z,605.00
2024-04-13T03:19:00.155Z,602.00
2024-04-13T03:20:00.174Z,602.00
2024-04-13T03:21:00.122Z,600.00
2024-04-13T03:22:00.146Z,604.00
2024-04-13T03:23:00.149Z,603.00
2024-04-13T03:24:00.151Z,604.00
2024-04-13T03:25:00.171Z,603.00
2024-04-13T03:26:00.121Z,600.00
2024-04-13T03:27:00.134Z,600.00
2024-04-13T03:28:00.134Z,602.00
2024-04-13T03:29:00.135Z,605.00
2024-04-13T03:30:00.222Z,606.00
2024-04-13T03:31:00.267Z,603.00
2024-04-13T03:32:00.282Z,620.00
2024-04-13T03:33:00.351Z,638.00
2024-04-13T03:34:00.395Z,652.00
2024-04-13T03:35:00.416Z,674.00
2024-04-13T03:36:00.478Z,716.00
2024-04-13T03:37:00.587Z,724.00
2024-04-13T03:38:00.576Z,742.00
2024-04-13T03:39:00.623Z,760.00
2024-04-13T03:42:36.530Z,747.00
2024-04-13T03:43:09.349Z,757.00
2024-04-13T03:44:09.369Z,800.00
2024-04-13T03:45:09.392Z,827.00
2024-04-13T03:46:09.359Z,849.00
2024-04-13T03:47:09.369Z,848.00
2024-04-13T03:48:09.422Z,794.00
2024-04-13T03:49:09.383Z,735.00
2024-04-13T03:50:09.361Z,704.00
2024-04-13T03:51:09.396Z,658.00
2024-04-13T03:52:09.396Z,640.00
2024-04-13T03:53:09.383Z,630.00
2024-04-13T03:56:45.101Z,622.00
2024-04-13T03:57:18.113Z,626.00
2024-04-13T03:58:18.051Z,644.00
2024-04-13T03:59:18.080Z,664.00
2024-04-13T04:00:18.227Z,703.00
2024-04-13T04:01:18.107Z,747.00
2024-04-13T04:03:59.560Z,735.00
2024-04-13T04:04:22.481Z,738.00
2024-04-13T04:05:22.423Z,767.00
2024-04-13T04:09:05.691Z,735.00
2024-04-13T04:11:02.539Z,735.00
2024-04-13T04:11:35.500Z,749.00
2024-04-13T04:12:35.554Z,812.00
2024-04-13T04:13:35.478Z,864.00
2024-04-13T04:14:36.155Z,894.00
2024-04-13T04:15:35.679Z,928.00
2024-04-13T04:16:35.446Z,938.00
2024-04-13T04:17:35.536Z,846.00
2024-04-13T04:18:35.582Z,755.00
2024-04-13T04:19:35.455Z,703.00
2024-04-13T04:20:35.506Z,653.00
2024-04-13T04:21:35.490Z,644.00
2024-04-13T04:22:35.465Z,643.00
2024-04-13T04:23:35.507Z,638.00
2024-04-13T04:24:35.501Z,627.00
2024-04-13T04:25:35.467Z,619.00
2024-04-13T04:26:35.485Z,615.00
2024-04-13T04:27:35.653Z,613.00
2024-04-13T04:28:35.464Z,602.00
2024-04-13T04:29:35.524Z,600.00
2024-04-13T04:30:35.466Z,601.00
2024-04-13T04:31:35.474Z,601.00
2024-04-13T04:32:35.503Z,604.00
2024-04-13T04:33:35.512Z,607.00
2024-04-13T04:34:35.477Z,614.00
2024-04-13T04:35:35.577Z,611.00
2024-04-13T04:36:35.569Z,616.00
2024-04-13T04:37:35.517Z,616.00
2024-04-13T04:38:35.497Z,607.00
2024-04-13T04:39:35.476Z,602.00
2024-04-13T04:40:35.516Z,601.00
2024-04-13T04:41:35.510Z,602.00
2024-04-13T04:42:35.591Z,600.00
2024-04-13T04:43:35.584Z,606.00
2024-04-13T04:44:35.691Z,608.00
2024-04-13T04:45:35.722Z,612.00
2024-04-13T04:48:09.891Z,621.00
2024-04-13T04:48:40.314Z,624.00
2024-04-13T04:49:40.092Z,638.00
2024-04-13T04:50:40.091Z,656.00
2024-04-13T04:51:40.137Z,674.00
2024-04-13T04:52:42.497Z,689.00
2024-04-13T04:53:40.081Z,623.00
2024-04-13T04:54:40.195Z,629.00
2024-04-13T04:55:40.089Z,638.00
2024-04-13T04:59:15.817Z,621.00
2024-04-13T05:02:24.573Z,621.00
2024-04-13T05:02:57.490Z,628.00
2024-04-13T05:03:57.536Z,661.00
2024-04-13T05:04:57.474Z,741.00
2024-04-13T05:05:57.496Z,838.00
2024-04-13T05:06:57.487Z,918.00
2024-04-13T05:15:00.576Z,913.00
2024-04-13T05:15:23.609Z,922.00
2024-04-13T05:16:23.590Z,1003.00
2024-04-13T05:17:23.581Z,1079.00
2024-04-13T05:18:23.771Z,1112.00
2024-04-13T05:19:23.639Z,1114.00
2024-04-13T05:20:23.568Z,1059.00
2024-04-13T05:21:23.699Z,966.00
2024-04-13T05:22:23.590Z,897.00
2024-04-13T05:23:23.567Z,838.00
2024-04-13T05:24:23.674Z,799.00
2024-04-13T05:33:25.314Z,751.00
2024-04-13T05:33:54.172Z,769.00
2024-04-13T05:34:54.013Z,869.00
2024-04-13T05:35:54.042Z,974.00
2024-04-13T05:39:29.921Z,751.00
2024-04-13T05:40:02.765Z,766.00
2024-04-13T05:41:02.728Z,841.00
2024-04-13T05:42:02.733Z,932.00
2024-04-13T05:43:02.762Z,1024.00
2024-04-13T05:44:02.723Z,1110.00
2024-04-13T05:45:02.720Z,1125.00
2024-04-13T05:46:02.735Z,1069.00
2024-04-13T05:47:02.731Z,1042.00
2024-04-13T05:48:02.772Z,1003.00
2024-04-13T05:49:02.742Z,975.00
2024-04-13T05:50:02.739Z,935.00
2024-04-13T05:51:02.751Z,905.00
2024-04-13T05:52:02.748Z,877.00
2024-04-13T05:55:38.788Z,880.00
2024-04-13T05:56:11.437Z,891.00
2024-04-13T05:57:11.563Z,941.00
2024-04-13T05:58:14.068Z,984.00
2024-04-13T05:59:11.423Z,890.00
2024-04-13T06:00:11.452Z,912.00
2024-04-13T06:01:11.521Z,936.00
2024-04-13T06:02:11.448Z,969.00
2024-04-13T06:03:11.587Z,1006.00
2024-04-13T06:04:11.511Z,1003.00
2024-04-13T06:05:11.459Z,1003.00
2024-04-13T06:06:11.510Z,984.00
2024-04-13T06:07:11.443Z,954.00
2024-04-13T06:08:11.462Z,953.00
2024-04-13T06:09:11.499Z,935.00
2024-04-13T06:10:11.457Z,913.00
2024-04-13T06:11:11.468Z,908.00
2024-04-13T06:12:11.504Z,903.00
2024-04-13T06:13:11.466Z,896.00
2024-04-13T06:14:11.451Z,897.00
2024-04-13T06:15:11.527Z,861.00
2024-04-13T06:16:11.498Z,862.00
2024-04-13T06:17:11.458Z,837.00
2024-04-13T06:18:11.535Z,800.00
2024-04-13T06:19:11.451Z,775.00
2024-04-13T06:32:26.342Z,741.00
2024-04-13T06:32:59.365Z,768.00
2024-04-13T06:33:59.408Z,909.00
2024-04-13T06:34:59.277Z,1064.00
2024-04-13T06:35:59.300Z,1213.00
2024-04-13T06:36:59.284Z,1346.00
2024-04-13T06:37:59.298Z,1350.00
2024-04-13T06:38:59.303Z,1229.00
2024-04-13T06:39:59.315Z,1145.00
2024-04-13T06:40:59.310Z,1085.00
2024-04-13T06:41:59.338Z,1038.00
2024-04-13T06:42:59.296Z,1002.00
2024-04-13T06:43:59.297Z,988.00
2024-04-13T06:44:59.308Z,972.00
2024-04-13T06:45:59.339Z,944.00
2024-04-13T06:46:59.315Z,942.00
2024-04-13T06:47:59.381Z,920.00
2024-04-13T06:53:53.740Z,908.00
2024-04-13T06:54:16.825Z,916.00
2024-04-13T06:55:16.707Z,989.00
2024-04-13T06:56:16.718Z,1071.00
2024-04-13T06:57:16.772Z,1133.00
2024-04-13T07:01:06.135Z,908.00
2024-04-13T07:01:36.632Z,918.00
2024-04-13T07:02:36.598Z,983.00
2024-04-13T07:03:36.654Z,1056.00
2024-04-13T07:04:36.628Z,1128.00
2024-04-13T07:05:36.534Z,1193.00
2024-04-13T07:06:36.585Z,1169.00
2024-04-13T07:07:36.635Z,1111.00
2024-04-13T07:08:43.828Z,1069.00
2024-04-13T07:09:37.616Z,1069.00
2024-04-13T07:10:36.540Z,1048.00
2024-04-13T07:11:36.503Z,1022.00
2024-04-13T07:12:36.511Z,1023.00
2024-04-13T07:13:36.534Z,1003.00
2024-04-13T07:14:36.558Z,994.00
2024-04-13T07:15:36.650Z,975.00
2024-04-13T07:16:36.532Z,954.00
2024-04-13T07:17:36.654Z,949.00
2024-04-13T07:18:36.633Z,942.00
2024-04-13T07:19:36.588Z,948.00
2024-04-13T07:20:36.527Z,968.00
2024-04-13T07:21:36.590Z,985.00
2024-04-13T07:22:36.659Z,995.00
2024-04-13T07:23:36.692Z,1003.00
2024-04-13T07:24:36.733Z,995.00
2024-04-13T07:25:36.747Z,1006.00
2024-04-13T07:26:36.810Z,1008.00
2024-04-13T07:27:36.865Z,997.00
2024-04-13T07:28:36.867Z,979.00
2024-04-13T07:29:36.898Z,975.00
2024-04-13T07:30:36.914Z,982.00
2024-04-13T07:31:36.952Z,995.00
2024-04-13T07:32:37.085Z,1037.00
2024-04-13T07:33:37.044Z,1053.00
2024-04-13T07:34:36.996Z,1059.00
2024-04-13T07:35:36.998Z,1059.00
2024-04-13T07:45:52.204Z,600.00
2024-04-13T07:46:14.881Z,600.00
2024-04-13T07:47:14.867Z,600.00
2024-04-13T07:48:15.036Z,600.00
2024-04-13T07:51:54.623Z,600.00
2024-04-13T07:52:23.578Z,600.00
2024-04-13T07:53:23.551Z,600.00
2024-04-13T07:54:23.580Z,600.00
2024-04-13T07:55:23.591Z,600.00
2024-04-13T07:56:23.557Z,600.00
2024-04-13T07:57:23.610Z,600.00
2024-04-13T07:58:23.562Z,594.00
2024-04-13T07:59:23.586Z,600.00
2024-04-13T08:00:23.619Z,592.00
2024-04-13T08:01:23.593Z,600.00
2024-04-13T08:02:23.579Z,600.00
2024-04-13T08:03:23.681Z,601.00
2024-04-13T08:04:23.754Z,601.00
2024-04-13T08:11:31.441Z,608.00
2024-04-13T08:12:04.348Z,614.00
2024-04-13T08:13:04.376Z,647.00
2024-04-13T08:14:04.374Z,681.00
2024-04-13T08:15:04.370Z,723.00
2024-04-13T08:16:04.374Z,749.00
2024-04-13T08:17:04.435Z,735.00
2024-04-13T08:18:04.415Z,644.00
2024-04-13T08:26:07.506Z,636.00
2024-04-13T08:26:30.459Z,640.00
2024-04-13T08:27:32.787Z,678.00
2024-04-13T08:28:30.492Z,647.00
2024-04-13T08:29:30.452Z,677.00
2024-04-13T08:30:30.467Z,727.00
2024-04-13T08:31:30.497Z,765.00
2024-04-13T08:36:20.556Z,636.00
2024-04-13T08:36:43.593Z,639.00
2024-04-13T08:37:43.521Z,661.00
2024-04-13T08:38:43.500Z,702.00
2024-04-13T08:39:43.676Z,722.00
2024-04-13T08:40:43.505Z,707.00
2024-04-13T08:41:43.499Z,675.00
2024-04-13T08:42:43.555Z,654.00
2024-04-13T08:43:43.487Z,644.00
2024-04-13T08:44:43.512Z,615.00
2024-04-13T08:45:43.583Z,599.00
2024-04-13T08:46:43.507Z,601.00
2024-04-13T08:47:43.603Z,598.00
2024-04-13T08:48:43.652Z,600.00
2024-04-13T08:49:43.509Z,601.00
2024-04-13T08:50:43.540Z,600.00
2024-04-13T08:51:43.643Z,594.00
2024-04-13T08:52:43.517Z,600.00
2024-04-13T08:53:43.519Z,600.00
2024-04-13T08:54:43.585Z,608.00
2024-04-13T08:55:43.529Z,601.00
2024-04-13T08:56:43.554Z,602.00
2024-04-13T08:57:43.599Z,600.00
2024-04-13T08:58:43.571Z,602.00
2024-04-13T08:59:43.532Z,625.00
2024-04-13T09:00:48.640Z,623.00
2024-04-13T09:01:50.125Z,623.00
2024-04-13T09:02:43.549Z,623.00
2024-04-13T09:07:33.015Z,623.00
2024-04-13T09:07:56.626Z,625.00
2024-04-13T09:08:56.595Z,645.00
2024-04-13T09:09:56.576Z,668.00
2024-04-13T09:10:56.614Z,691.00
2024-04-13T09:12:00.469Z,681.00
2024-04-13T09:21:01.573Z,623.00
2024-04-13T09:21:27.066Z,627.00
2024-04-13T09:22:27.016Z,659.00
2024-04-13T09:23:27.037Z,737.00
2024-04-13T09:24:27.071Z,829.00
2024-04-13T09:25:27.040Z,895.00
2024-04-13T09:26:27.023Z,839.00
2024-04-13T09:27:27.045Z,714.00
2024-04-13T09:28:27.038Z,661.00
2024-04-13T09:29:27.082Z,642.00
2024-04-13T09:30:27.085Z,641.00
2024-04-13T09:31:27.034Z,647.00
2024-04-13T09:32:27.098Z,628.00
2024-04-13T09:33:27.111Z,617.00
2024-04-13T09:34:27.045Z,602.00
2024-04-13T09:51:04.953Z,603.00
2024-04-13T09:51:27.993Z,605.00
2024-04-13T09:52:27.910Z,641.00
2024-04-13T09:53:27.962Z,700.00
2024-04-13T09:54:28.172Z,754.00
2024-04-13T09:55:27.918Z,802.00
2024-04-13T10:00:11.989Z,660.00
2024-04-13T10:00:41.189Z,766.00
2024-04-13T10:01:41.098Z,791.00
2024-04-13T10:02:40.992Z,797.00
2024-04-13T10:03:41.111Z,717.00
2024-04-13T10:04:40.982Z,615.00
2024-04-13T10:05:40.983Z,600.00
2024-04-13T10:06:41.021Z,581.00
2024-04-13T10:07:40.991Z,600.00
2024-04-13T10:08:40.993Z,608.00
2024-04-13T10:09:41.043Z,598.00
2024-04-13T10:10:40.981Z,600.00
2024-04-13T10:11:40.985Z,615.00
2024-04-13T10:18:39.836Z,608.00
2024-04-13T10:19:02.781Z,614.00
2024-04-13T10:20:02.722Z,639.00
2024-04-13T10:21:02.727Z,688.00
2024-04-13T10:22:03.927Z,754.00
2024-04-13T10:23:02.772Z,804.00
2024-04-13T10:24:02.732Z,849.00
2024-04-13T10:25:02.721Z,796.00
2024-04-13T10:26:02.734Z,761.00
2024-04-13T10:27:02.739Z,733.00
2024-04-13T10:28:02.771Z,664.00
2024-04-13T10:29:02.766Z,634.00
2024-04-13T10:30:02.752Z,633.00
2024-04-13T11:12:24.658Z,641.00
2024-04-13T11:12:57.650Z,648.00
2024-04-13T11:13:57.650Z,768.00
2024-04-13T11:14:57.599Z,969.00
2024-04-13T11:15:57.621Z,1168.00
2024-04-13T11:16:57.639Z,1378.00
2024-04-13T11:17:57.719Z,1440.00
2024-04-13T11:18:57.723Z,1264.00
2024-04-13T11:19:57.600Z,1185.00
2024-04-13T11:20:57.608Z,1062.00
2024-04-13T11:21:57.644Z,783.00
2024-04-13T11:22:57.593Z,655.00
2024-04-13T11:23:57.603Z,657.00
2024-04-13T11:24:57.607Z,645.00
2024-04-13T11:25:57.617Z,620.00
2024-04-13T11:26:57.621Z,616.00
2024-04-13T11:27:57.665Z,585.00
2024-04-13T11:28:57.612Z,559.00
2024-04-13T11:29:57.615Z,592.00
2024-04-13T11:30:57.888Z,626.00
2024-04-13T11:31:57.664Z,605.00
2024-04-13T11:32:58.516Z,592.00
2024-04-13T11:33:57.694Z,612.00
2024-04-13T11:34:57.659Z,590.00
2024-04-13T11:35:57.647Z,599.00
2024-04-13T11:36:57.721Z,594.00
2024-04-13T11:37:57.628Z,592.00
2024-04-13T11:38:57.632Z,599.00
2024-04-13T11:39:57.656Z,608.00
2024-04-13T11:49:02.706Z,400.00
2024-04-13T11:49:30.046Z,601.00
2024-04-13T11:50:28.083Z,622.00
2024-04-13T11:51:28.119Z,652.00
2024-04-13T11:52:29.478Z,666.00
2024-04-13T11:53:28.073Z,602.00
2024-04-13T11:54:28.174Z,605.00
2024-04-13T11:55:28.083Z,604.00
2024-04-13T11:56:28.091Z,576.00
2024-04-13T11:57:28.159Z,539.00
2024-04-13T11:58:28.096Z,574.00
2024-04-13T11:59:28.095Z,605.00
2024-04-13T12:00:28.130Z,595.00
2024-04-13T12:01:28.118Z,611.00
2024-04-13T12:02:28.129Z,638.00
2024-04-13T12:03:28.173Z,632.00
2024-04-13T12:04:28.137Z,596.00
2024-04-13T12:05:28.089Z,599.00
2024-04-13T12:06:28.125Z,601.00
2024-04-13T12:07:28.108Z,601.00
2024-04-13T12:08:28.110Z,570.00
2024-04-13T12:09:28.198Z,605.00
2024-04-13T12:13:13.813Z,543.00
2024-04-13T12:13:36.847Z,602.00
2024-04-13T12:14:46.659Z,613.00
2024-04-13T12:15:37.859Z,604.00
2024-04-13T12:16:45.065Z,600.00
2024-04-13T12:17:45.141Z,600.00
2024-04-13T12:18:45.279Z,600.00
2024-04-13T12:19:45.120Z,600.00
2024-04-13T12:28:55.856Z,600.00
2024-04-13T12:29:25.863Z,600.00
2024-04-13T12:30:25.875Z,600.00
2024-04-13T12:31:25.843Z,600.00
2024-04-13T12:44:50.701Z,600.00
2024-04-13T12:45:13.677Z,600.00
2024-04-13T12:46:13.658Z,600.00
2024-04-13T12:47:13.696Z,600.00
2024-04-13T12:48:13.760Z,600.00
2024-04-13T12:49:13.704Z,600.00
2024-04-13T12:50:13.661Z,602.00
2024-04-13T12:51:13.671Z,563.00
2024-04-13T12:52:13.683Z,563.00
2024-04-13T12:53:13.694Z,560.00
2024-04-13T12:54:13.696Z,581.00
2024-04-13T12:55:13.667Z,572.00
2024-04-13T12:56:13.663Z,589.00
2024-04-13T12:57:13.673Z,598.00
2024-04-13T12:58:13.682Z,604.00
2024-04-13T13:01:53.430Z,524.00
2024-04-13T13:02:22.444Z,616.00
2024-04-13T13:03:22.454Z,622.00
2024-04-13T13:04:22.397Z,618.00
2024-04-13T13:09:18.981Z,450.00
2024-04-13T13:09:47.988Z,616.00
2024-04-13T13:10:47.938Z,630.00
2024-04-13T13:11:52.928Z,646.00
2024-04-13T13:12:47.969Z,616.00
2024-04-13T13:13:47.913Z,616.00
2024-04-13T13:14:47.920Z,592.00
2024-04-13T13:15:47.961Z,583.00
2024-04-13T13:16:47.947Z,575.00
2024-04-13T13:17:47.945Z,600.00
2024-04-13T13:18:47.964Z,590.00
2024-04-13T13:21:23.333Z,558.00
2024-04-13T13:21:52.344Z,597.00
2024-04-13T13:22:52.244Z,603.00
2024-04-13T13:23:52.248Z,592.00
2024-04-13T13:26:33.597Z,521.00
2024-04-13T13:26:56.608Z,597.00
2024-04-13T13:27:56.640Z,601.00
2024-04-13T13:28:58.943Z,591.00
2024-04-13T13:29:56.646Z,556.00
2024-04-13T13:30:56.750Z,484.00
2024-04-13T13:31:56.763Z,480.00
2024-04-13T13:32:56.840Z,539.00
2024-04-13T13:33:56.909Z,529.00
2024-04-13T13:34:56.875Z,497.00
2024-04-13T13:35:56.858Z,508.00
2024-04-13T13:36:57.029Z,525.00
2024-04-13T13:37:56.965Z,587.00
2024-04-13T13:38:57.007Z,580.00
2024-04-13T13:39:57.116Z,600.00
2024-04-13T13:40:57.095Z,648.00
2024-04-13T13:41:57.117Z,811.00
2024-04-13T13:42:57.147Z,875.00
2024-04-13T13:43:57.180Z,991.00
2024-04-13T13:44:57.210Z,1030.00
2024-04-13T13:45:57.237Z,783.00
2024-04-13T13:46:57.267Z,707.00
2024-04-13T13:47:57.350Z,676.00
2024-04-13T13:48:57.456Z,597.00
2024-04-13T13:49:57.359Z,595.00
2024-04-13T13:50:57.403Z,598.00
2024-04-13T13:51:57.510Z,600.00
2024-04-13T13:52:57.516Z,605.00
2024-04-13T13:53:57.514Z,602.00
2024-04-13T13:54:57.554Z,620.00
2024-04-13T13:55:57.646Z,619.00
2024-04-13T13:56:57.668Z,589.00
2024-04-13T13:57:57.708Z,604.00
2024-04-13T13:58:59.094Z,607.00
2024-04-13T13:59:57.824Z,613.00
2024-04-13T14:00:58.034Z,616.00
2024-04-13T14:01:57.982Z,600.00
2024-04-13T14:02:58.027Z,595.00
2024-04-13T14:03:58.067Z,606.00
2024-04-13T14:04:59.734Z,600.00
2024-04-13T14:17:12.585Z,400.00
2024-04-13T14:17:41.626Z,604.00
2024-04-13T14:18:41.605Z,635.00
2024-04-13T14:19:41.523Z,703.00
2024-04-13T14:20:41.563Z,844.00
2024-04-13T14:21:41.543Z,924.00
2024-04-13T14:22:41.539Z,939.00
2024-04-13T14:23:41.545Z,894.00
2024-04-13T14:24:41.551Z,799.00
2024-04-13T14:25:41.575Z,823.00
2024-04-13T14:26:41.530Z,835.00
2024-04-13T14:27:41.570Z,826.00
2024-04-13T14:28:41.536Z,664.00
2024-04-13T14:29:41.557Z,633.00
2024-04-13T14:30:41.585Z,598.00
2024-04-13T14:31:41.562Z,601.00
2024-04-13T14:32:41.638Z,618.00
2024-04-13T14:33:41.611Z,618.00
2024-04-13T14:34:41.554Z,613.00
2024-04-13T14:35:41.540Z,624.00
2024-04-13T14:36:41.951Z,610.00
2024-04-13T14:37:41.558Z,600.00
2024-04-13T14:38:41.548Z,593.00
2024-04-13T14:39:41.674Z,608.00
2024-04-13T14:40:41.559Z,629.00
2024-04-13T14:41:41.556Z,619.00
2024-04-13T14:42:41.626Z,613.00
2024-04-13T14:43:41.591Z,625.00
2024-04-13T14:44:41.590Z,631.00
2024-04-13T14:45:41.571Z,599.00
2024-04-13T14:46:41.559Z,606.00
2024-04-13T14:47:41.590Z,641.00
2024-04-13T14:48:41.715Z,623.00
2024-04-13T14:49:41.586Z,626.00
2024-04-13T14:50:41.564Z,600.00
2024-04-13T14:51:41.607Z,608.00
2024-04-13T14:52:41.561Z,622.00
2024-04-13T14:53:41.562Z,645.00
2024-04-13T14:54:41.718Z,658.00
2024-04-13T14:55:41.633Z,628.00
2024-04-13T14:56:41.642Z,620.00
2024-04-13T14:57:41.718Z,616.00
2024-04-13T14:58:41.749Z,659.00
2024-04-13T14:59:41.752Z,744.00
2024-04-13T15:00:41.813Z,822.00
2024-04-13T15:01:41.867Z,831.00
2024-04-13T15:02:41.882Z,818.00
2024-04-13T15:03:41.932Z,772.00
2024-04-13T15:04:42.000Z,675.00
2024-04-13T15:09:26.161Z,520.00
2024-04-13T15:09:55.011Z,667.00
2024-04-13T15:20:02.407Z,612.00
2024-04-13T15:20:30.037Z,672.00
2024-04-13T15:21:30.138Z,785.00
2024-04-13T15:22:30.102Z,992.00
2024-04-13T15:23:30.164Z,1281.00
2024-04-13T15:24:30.150Z,1596.00
2024-04-13T15:25:30.202Z,1808.00
2024-04-13T15:26:30.214Z,1837.00
2024-04-13T15:27:30.310Z,1783.00
2024-04-13T15:28:30.320Z,1736.00
2024-04-13T15:29:30.329Z,1716.00
2024-04-13T15:30:30.414Z,1732.00
2024-04-13T15:31:30.456Z,1805.00
2024-04-13T15:32:30.530Z,1916.00
2024-04-13T15:33:30.571Z,1942.00
2024-04-13T15:34:30.565Z,2044.00
2024-04-13T15:35:30.579Z,2159.00
2024-04-13T15:36:30.608Z,2203.00
2024-04-13T15:37:30.619Z,2245.00
2024-04-13T15:50:45.488Z,2251.00
2024-04-13T15:51:18.520Z,2272.00
2024-04-13T15:52:18.474Z,2411.00
2024-04-13T15:53:18.472Z,2637.00
2024-04-13T15:54:18.530Z,2894.00
2024-04-13T15:55:18.463Z,3201.00
2024-04-13T15:56:18.469Z,3171.00
2024-04-13T15:57:18.545Z,3037.00
2024-04-13T15:58:18.481Z,2883.00
2024-04-13T15:59:18.473Z,2800.00
2024-04-13T16:00:18.553Z,2720.00
2024-04-13T16:01:18.576Z,2657.00
2024-04-13T16:02:18.542Z,2594.00
2024-04-13T16:03:18.558Z,2512.00
2024-04-13T16:04:18.560Z,2597.00
2024-04-13T16:05:18.501Z,2715.00
2024-04-13T16:06:18.496Z,2690.00
2024-04-13T16:07:18.477Z,2719.00
2024-04-13T16:08:18.480Z,2596.00
2024-04-13T16:09:18.594Z,2493.00
2024-04-13T16:12:55.758Z,2157.00
2024-04-13T16:18:11.591Z,2312.00
2024-04-13T16:18:44.596Z,2389.00
2024-04-13T16:19:44.573Z,2481.00
2024-04-13T16:20:44.569Z,2568.00
2024-04-13T16:21:44.637Z,2671.00
2024-04-13T16:22:44.585Z,2852.00
2024-04-13T16:23:44.570Z,2770.00
2024-04-13T16:24:45.400Z,2632.00
2024-04-13T16:25:44.664Z,2544.00
2024-04-13T16:26:44.733Z,2635.00
2024-04-13T16:27:44.794Z,2740.00
2024-04-13T16:28:44.780Z,2815.00
2024-04-13T16:29:44.860Z,3169.00
2024-04-13T16:30:44.893Z,3377.00
2024-04-13T16:31:44.930Z,3697.00
2024-04-13T16:32:45.089Z,3707.00
2024-04-13T16:33:45.074Z,3555.00
2024-04-13T16:34:45.109Z,3466.00
2024-04-13T16:39:25.292Z,3454.00
2024-04-13T16:39:58.223Z,3470.00
2024-04-13T16:40:58.177Z,3551.00
2024-04-13T16:41:58.188Z,3678.00
2024-04-13T16:42:58.226Z,3882.00
2024-04-13T16:43:58.181Z,4173.00
2024-04-13T16:44:58.181Z,4382.00
2024-04-13T16:56:07.338Z,4288.00
2024-04-13T16:56:37.346Z,4298.00
2024-04-13T16:57:37.391Z,4353.00
2024-04-13T16:58:37.292Z,4393.00
2024-04-13T16:59:37.315Z,4393.00
2024-04-13T17:00:37.366Z,4305.00
2024-04-13T17:01:37.332Z,4151.00
2024-04-13T17:02:37.401Z,4043.00
2024-04-13T17:03:37.364Z,4051.00
2024-04-13T17:04:37.317Z,4134.00
2024-04-13T17:05:37.312Z,3956.00
2024-04-13T17:06:37.370Z,3947.00
2024-04-13T17:07:37.325Z,3934.00
2024-04-13T17:08:37.333Z,3818.00
2024-04-13T17:09:37.336Z,3711.00
2024-04-13T17:10:37.332Z,3674.00
2024-04-13T17:14:18.529Z,3587.00
2024-04-13T17:14:46.193Z,3701.00
2024-04-13T17:15:46.274Z,3711.00
2024-04-13T17:16:46.231Z,3682.00
2024-04-13T17:17:48.370Z,3586.00
2024-04-13T17:18:46.580Z,3520.00
2024-04-13T17:23:29.651Z,3453.00
2024-04-13T17:23:59.608Z,3513.00
2024-04-13T17:24:59.628Z,3556.00